createdAt,value
2023-05-02T00:00:29.254Z,10.32
2023-05-02T00:02:55.931Z,10.32
2023-05-02T00:05:23.232Z,10.32
2023-05-02T00:07:51.352Z,10.33
2023-05-02T00:10:18.209Z,10.32
2023-05-02T00:12:44.760Z,10.33
2023-05-02T00:15:11.391Z,10.33
2023-05-02T00:17:41.663Z,10.33
2023-05-02T00:20:12.237Z,10.30
2023-05-02T00:22:39.329Z,10.29
2023-05-02T00:25:06.527Z,10.30
2023-05-02T00:27:33.315Z,10.31
2023-05-02T00:30:00.793Z,10.33
2023-05-02T00:32:28.187Z,10.33
2023-05-02T00:34:54.863Z,10.33
2023-05-02T00:37:21.386Z,10.32
2023-05-02T00:39:47.876Z,10.34
2023-05-02T00:42:14.331Z,10.35
2023-05-02T00:44:40.832Z,10.35
2023-05-02T00:47:07.362Z,10.37
2023-05-02T00:49:33.919Z,10.40
2023-05-02T00:52:00.853Z,10.37
2023-05-02T00:54:27.582Z,10.38
2023-05-02T00:56:54.105Z,10.38
2023-05-02T00:59:21.007Z,10.35
2023-05-02T01:02:00.661Z,10.34
2023-05-02T01:04:50.831Z,10.32
2023-05-02T01:07:34.915Z,10.30
2023-05-02T01:10:23.568Z,10.28
2023-05-02T01:13:11.963Z,10.28
2023-05-02T01:15:40.680Z,10.29
2023-05-02T01:18:10.428Z,10.29
2023-05-02T01:20:42.379Z,10.31
2023-05-02T01:23:31.185Z,10.24
2023-05-02T01:26:14.935Z,10.21
2023-05-02T01:28:53.611Z,10.16
2023-05-02T01:31:22.037Z,10.13
2023-05-02T01:33:49.840Z,10.10
2023-05-02T01:36:17.629Z,10.07
2023-05-02T01:38:45.284Z,10.04
2023-05-02T01:41:14.243Z,10.01
2023-05-02T01:43:42.385Z,10.00
2023-05-02T01:46:13.654Z,10.00
2023-05-02T01:48:44.466Z,9.96
2023-05-02T01:51:12.126Z,9.96
2023-05-02T01:53:40.222Z,9.93
2023-05-02T01:56:07.534Z,9.93
2023-05-02T01:58:36.103Z,9.91
2023-05-02T02:01:04.382Z,9.88
2023-05-02T02:03:32.230Z,9.85
2023-05-02T02:06:01.063Z,9.82
2023-05-02T02:08:27.727Z,9.81
2023-05-02T02:10:59.420Z,9.81
2023-05-02T02:13:32.784Z,9.80
2023-05-02T02:16:02.073Z,9.83
2023-05-02T02:18:30.333Z,9.82
2023-05-02T02:20:59.311Z,9.82
2023-05-02T02:23:28.302Z,9.77
2023-05-02T02:25:56.989Z,9.76
2023-05-02T02:28:23.740Z,9.73
2023-05-02T02:30:50.289Z,9.75
2023-05-02T02:33:17.520Z,9.72
2023-05-02T02:35:52.707Z,9.68
2023-05-02T02:39:02.837Z,9.68
2023-05-02T02:41:39.902Z,9.67
2023-05-02T02:44:22.703Z,9.67
2023-05-02T02:47:06.029Z,9.66
2023-05-02T02:49:32.450Z,9.65
2023-05-02T02:52:24.717Z,9.66
2023-05-02T02:55:03.541Z,9.62
2023-05-02T02:57:40.930Z,9.60
2023-05-02T03:00:13.947Z,9.60
2023-05-02T03:02:42.799Z,9.57
2023-05-02T03:05:11.055Z,9.56
2023-05-02T03:07:37.620Z,9.54
2023-05-02T03:10:05.798Z,9.51
2023-05-02T03:12:34.292Z,9.51
2023-05-02T03:15:30.733Z,9.50
2023-05-02T03:17:57.717Z,9.48
2023-05-02T03:20:24.234Z,9.48
2023-05-02T03:22:50.760Z,9.47
2023-05-02T03:25:17.216Z,9.45
2023-05-02T03:27:47.154Z,9.44
2023-05-02T03:30:14.214Z,9.43
2023-05-02T03:32:40.760Z,9.42
2023-05-02T03:35:07.811Z,9.41
2023-05-02T03:37:39.430Z,9.39
2023-05-02T03:40:06.854Z,9.38
2023-05-02T03:42:39.787Z,9.35
2023-05-02T03:45:11.194Z,9.32
2023-05-02T03:47:37.983Z,9.30
2023-05-02T03:50:04.815Z,9.27
2023-05-02T03:52:33.862Z,9.25
2023-05-02T03:55:01.640Z,9.24
2023-05-02T03:57:32.315Z,9.22
2023-05-02T04:00:00.596Z,9.21
2023-05-02T04:02:38.446Z,9.21
2023-05-02T04:05:08.684Z,9.18
2023-05-02T04:07:36.361Z,9.19
2023-05-02T04:10:06.142Z,9.18
2023-05-02T04:12:37.208Z,9.16
2023-05-02T04:15:04.049Z,9.18
2023-05-02T04:17:30.625Z,9.17
2023-05-02T04:19:57.186Z,9.15
2023-05-02T04:22:26.513Z,9.14
2023-05-02T04:24:57.689Z,9.13
2023-05-02T04:27:25.841Z,9.12
2023-05-02T04:29:53.380Z,9.12
2023-05-02T04:32:20.296Z,9.12
2023-05-02T04:34:48.145Z,9.09
2023-05-02T04:37:16.235Z,9.06
2023-05-02T04:39:44.650Z,9.05
2023-05-02T04:42:16.981Z,9.02
2023-05-02T04:44:54.422Z,8.94
2023-05-02T04:47:21.639Z,8.89
2023-05-02T04:49:48.312Z,8.88
2023-05-02T04:52:14.942Z,8.85
2023-05-02T04:54:41.509Z,8.83
2023-05-02T04:57:09.899Z,8.80
2023-05-02T04:59:39.593Z,8.82
2023-05-02T05:02:08.280Z,8.82
2023-05-02T05:04:35.688Z,8.84
2023-05-02T05:07:02.277Z,8.83
2023-05-02T05:09:29.167Z,8.83
2023-05-02T05:11:56.740Z,8.84
2023-05-02T05:14:24.223Z,8.82
2023-05-02T05:16:54.045Z,8.86
2023-05-02T05:19:22.972Z,8.87
2023-05-02T05:21:50.344Z,8.87
2023-05-02T05:24:18.526Z,8.88
2023-05-02T05:26:45.813Z,8.93
2023-05-02T05:29:12.687Z,8.90
2023-05-02T05:31:41.749Z,8.89
2023-05-02T05:34:12.536Z,8.86
2023-05-02T05:36:42.713Z,8.81
2023-05-02T05:39:10.325Z,8.80
2023-05-02T05:41:39.304Z,8.80
2023-05-02T05:44:09.093Z,8.84
2023-05-02T05:46:35.573Z,8.80
2023-05-02T05:49:03.676Z,8.79
2023-05-02T05:51:31.394Z,8.81
2023-05-02T05:53:59.351Z,8.81
2023-05-02T05:56:26.948Z,8.85
2023-05-02T05:59:06.776Z,8.87
2023-05-02T06:01:34.066Z,8.87
2023-05-02T06:04:02.918Z,8.92
2023-05-02T06:06:30.118Z,8.90
2023-05-02T06:08:56.705Z,8.89
2023-05-02T06:11:26.427Z,8.97
2023-05-02T06:13:53.345Z,9.06
2023-05-02T06:16:20.317Z,9.14
2023-05-02T06:18:47.479Z,9.20
2023-05-02T06:21:13.962Z,9.27
2023-05-02T06:23:40.971Z,9.30
2023-05-02T06:26:07.497Z,9.39
2023-05-02T06:28:33.880Z,9.51
2023-05-02T06:31:02.730Z,9.61
2023-05-02T06:33:30.041Z,9.69
2023-05-02T06:35:58.520Z,9.73
2023-05-02T06:38:25.875Z,9.75
2023-05-02T06:40:52.358Z,9.77
2023-05-02T06:43:19.170Z,9.83
2023-05-02T06:45:45.730Z,9.87
2023-05-02T06:48:12.291Z,9.86
2023-05-02T06:50:38.946Z,9.84
2023-05-02T06:53:06.137Z,9.78
2023-05-02T06:55:32.795Z,9.72
2023-05-02T06:57:59.534Z,9.70
2023-05-02T07:00:26.447Z,9.70
2023-05-02T07:02:52.966Z,9.68
2023-05-02T07:05:19.441Z,9.68
2023-05-02T07:07:45.889Z,9.64
2023-05-02T07:10:12.548Z,9.68
2023-05-02T07:12:39.470Z,9.69
2023-05-02T07:15:07.208Z,9.72
2023-05-02T07:17:33.958Z,9.77
2023-05-02T07:20:00.877Z,9.85
2023-05-02T07:22:27.625Z,9.96
2023-05-02T07:24:58.797Z,9.97
2023-05-02T07:27:25.808Z,9.84
2023-05-02T07:29:52.411Z,9.86
2023-05-02T07:32:21.703Z,9.87
2023-05-02T07:34:48.648Z,9.89
2023-05-02T07:37:15.124Z,9.90
2023-05-02T07:39:41.577Z,9.91
2023-05-02T07:42:07.989Z,10.00
2023-05-02T07:44:35.928Z,10.07
2023-05-02T07:47:02.657Z,10.12
2023-05-02T07:49:29.280Z,10.21
2023-05-02T07:51:58.779Z,10.34
2023-05-02T07:54:28.335Z,10.40
2023-05-02T07:56:57.449Z,10.46
2023-05-02T07:59:23.903Z,10.54
2023-05-02T08:01:50.473Z,10.67
2023-05-02T08:04:17.341Z,10.78
2023-05-02T08:06:45.084Z,10.75
2023-05-02T08:09:11.635Z,10.78
2023-05-02T08:11:38.086Z,10.75
2023-05-02T08:14:04.586Z,10.69
2023-05-02T08:16:31.367Z,10.68
2023-05-02T08:18:57.872Z,10.60
2023-05-02T08:21:24.367Z,10.65
2023-05-02T08:23:50.777Z,10.66
2023-05-02T08:26:18.996Z,10.66
2023-05-02T08:28:45.488Z,10.83
2023-05-02T08:31:11.936Z,10.98
2023-05-02T08:33:38.419Z,11.03
2023-05-02T08:36:12.277Z,11.08
2023-05-02T08:38:38.940Z,11.20
2023-05-02T08:41:12.820Z,11.28
2023-05-02T08:43:40.197Z,11.32
2023-05-02T08:46:10.126Z,11.33
2023-05-02T08:48:37.513Z,11.49
2023-05-02T08:51:04.764Z,11.62
2023-05-02T08:53:35.083Z,11.70
2023-05-02T08:56:01.702Z,11.78
2023-05-02T08:58:29.025Z,11.92
2023-05-02T09:00:56.849Z,11.96
2023-05-02T09:03:26.402Z,12.15
2023-05-02T09:05:55.248Z,12.34
2023-05-02T09:08:25.383Z,12.46
2023-05-02T09:10:51.854Z,12.64
2023-05-02T09:13:29.605Z,12.87
2023-05-02T09:16:04.770Z,12.65
2023-05-02T09:18:35.775Z,12.47
2023-05-02T09:21:06.599Z,12.42
2023-05-02T09:23:40.588Z,12.40
2023-05-02T09:26:32.222Z,12.47
2023-05-02T09:29:01.171Z,12.53
2023-05-02T09:31:54.070Z,12.62
2023-05-02T09:34:20.964Z,12.80
2023-05-02T09:36:51.262Z,12.88
2023-05-02T09:39:24.748Z,13.03
2023-05-02T09:41:52.910Z,13.13
2023-05-02T09:44:21.504Z,13.35
2023-05-02T09:46:49.906Z,13.45
2023-05-02T09:49:19.961Z,13.52
2023-05-02T09:51:47.748Z,13.60
2023-05-02T09:54:15.238Z,13.84
2023-05-02T09:56:57.390Z,14.17
2023-05-02T09:59:24.907Z,13.77
2023-05-02T10:02:02.103Z,13.98
2023-05-02T10:04:31.005Z,14.47
2023-05-02T10:06:57.631Z,14.76
2023-05-02T10:09:25.838Z,14.89
2023-05-02T10:11:54.745Z,14.61
2023-05-02T10:14:23.412Z,14.17
2023-05-02T10:17:01.301Z,13.83
2023-05-02T10:19:33.500Z,13.78
2023-05-02T10:22:00.747Z,14.22
2023-05-02T10:24:30.493Z,14.81
2023-05-02T10:26:57.141Z,15.15
2023-05-02T10:29:23.661Z,15.30
2023-05-02T10:31:50.950Z,15.30
2023-05-02T10:34:18.830Z,15.01
2023-05-02T10:36:45.923Z,14.71
2023-05-02T10:39:12.462Z,14.28
2023-05-02T10:41:41.588Z,14.25
2023-05-02T10:44:08.709Z,14.66
2023-05-02T10:46:43.326Z,14.67
2023-05-02T10:49:11.806Z,14.44
2023-05-02T10:51:41.173Z,14.46
2023-05-02T10:54:16.873Z,14.69
2023-05-02T10:57:12.806Z,15.08
2023-05-02T10:59:41.291Z,15.45
2023-05-02T11:02:28.021Z,15.38
2023-05-02T11:05:22.801Z,15.30
2023-05-02T11:07:49.543Z,15.72
2023-05-02T11:10:16.045Z,15.63
2023-05-02T11:12:49.281Z,15.58
2023-05-02T11:15:41.374Z,15.64
2023-05-02T11:18:09.653Z,15.70
2023-05-02T11:20:39.459Z,15.92
2023-05-02T11:23:15.356Z,15.70
2023-05-02T11:25:43.565Z,15.61
2023-05-02T11:28:37.949Z,15.47
2023-05-02T11:31:09.588Z,15.70
2023-05-02T11:33:36.226Z,15.77
2023-05-02T11:36:03.169Z,15.70
2023-05-02T11:38:37.566Z,15.93
2023-05-02T11:41:04.676Z,16.23
2023-05-02T11:43:34.265Z,15.82
2023-05-02T11:46:02.454Z,15.35
2023-05-02T11:48:30.843Z,15.17
2023-05-02T11:51:03.438Z,14.97
2023-05-02T11:53:31.343Z,15.28
2023-05-02T11:56:01.334Z,15.31
2023-05-02T11:58:32.073Z,15.09
2023-05-02T12:00:59.807Z,14.97
2023-05-02T12:03:32.033Z,15.18
2023-05-02T12:06:20.674Z,15.07
2023-05-02T12:08:48.923Z,14.96
2023-05-02T12:11:16.523Z,14.92
2023-05-02T12:13:48.625Z,14.86
2023-05-02T12:16:16.138Z,14.98
2023-05-02T12:18:43.070Z,15.40
2023-05-02T12:21:09.876Z,15.52
2023-05-02T12:23:37.614Z,15.45
2023-05-02T12:26:22.072Z,14.99
2023-05-02T12:28:54.388Z,15.04
2023-05-02T12:31:21.392Z,14.97
2023-05-02T12:33:50.111Z,14.61
2023-05-02T12:36:17.652Z,14.46
2023-05-02T12:39:10.510Z,14.51
2023-05-02T12:41:39.426Z,14.42
2023-05-02T12:44:07.510Z,14.41
2023-05-02T12:46:34.087Z,14.45
2023-05-02T12:49:12.500Z,14.60
2023-05-02T12:51:39.990Z,14.46
2023-05-02T12:54:07.076Z,14.10
2023-05-02T12:56:40.844Z,14.13
2023-05-02T12:59:08.087Z,14.28
2023-05-02T13:01:34.945Z,14.34
2023-05-02T13:04:01.757Z,14.35
2023-05-02T13:06:28.441Z,14.43
2023-05-02T13:08:54.842Z,14.33
2023-05-02T13:11:21.492Z,14.18
2023-05-02T13:13:48.159Z,14.24
2023-05-02T13:16:14.774Z,14.22
2023-05-02T13:18:41.468Z,14.16
2023-05-02T13:21:07.969Z,14.15
2023-05-02T13:23:34.461Z,14.39
2023-05-02T13:26:00.874Z,14.58
2023-05-02T13:28:29.040Z,14.53
2023-05-02T13:30:55.455Z,14.43
2023-05-02T13:33:22.014Z,14.17
2023-05-02T13:35:48.518Z,14.04
2023-05-02T13:38:14.964Z,14.02
2023-05-02T13:40:41.623Z,14.00
2023-05-02T13:43:08.048Z,13.93
2023-05-02T13:45:34.545Z,13.99
2023-05-02T13:48:01.033Z,14.05
2023-05-02T13:50:27.542Z,14.08
2023-05-02T13:52:53.955Z,13.98
2023-05-02T13:55:20.580Z,13.91
2023-05-02T13:57:47.130Z,13.86
2023-05-02T14:00:14.165Z,13.61
2023-05-02T14:02:40.732Z,13.36
2023-05-02T14:05:07.962Z,13.45
2023-05-02T14:07:34.499Z,13.45
2023-05-02T14:10:01.142Z,13.44
2023-05-02T14:12:28.414Z,13.46
2023-05-02T14:14:54.916Z,13.44
2023-05-02T14:17:21.614Z,13.47
2023-05-02T14:19:48.175Z,13.46
2023-05-02T14:22:14.742Z,13.38
2023-05-02T14:24:41.254Z,13.28
2023-05-02T14:27:12.823Z,13.11
2023-05-02T14:29:39.887Z,13.22
2023-05-02T14:32:06.470Z,13.28
2023-05-02T14:34:32.897Z,13.27
2023-05-02T14:36:59.304Z,13.21
2023-05-02T14:39:27.429Z,13.26
2023-05-02T14:41:53.869Z,13.33
2023-05-02T14:44:20.341Z,13.29
2023-05-02T14:46:46.840Z,13.26
2023-05-02T14:49:13.353Z,13.19
2023-05-02T14:51:40.033Z,13.01
2023-05-02T14:54:07.131Z,13.00
2023-05-02T14:56:33.732Z,12.93
2023-05-02T14:59:00.326Z,13.04
2023-05-02T15:01:27.068Z,13.06
2023-05-02T15:04:05.872Z,13.19
2023-05-02T15:06:34.223Z,13.15
2023-05-02T15:09:01.729Z,13.11
2023-05-02T15:11:28.226Z,13.04
2023-05-02T15:13:56.585Z,12.95
2023-05-02T15:16:24.899Z,12.91
2023-05-02T15:18:51.381Z,12.88
2023-05-02T15:21:17.831Z,12.88
2023-05-02T15:23:44.292Z,12.83
2023-05-02T15:26:11.018Z,12.71
2023-05-02T15:28:37.443Z,12.66
2023-05-02T15:31:04.154Z,12.71
2023-05-02T15:33:30.781Z,12.67
2023-05-02T15:35:58.375Z,12.60
2023-05-02T15:38:25.751Z,12.67
2023-05-02T15:40:59.405Z,12.63
2023-05-02T15:43:27.167Z,12.62
2023-05-02T15:45:56.145Z,12.66
2023-05-02T15:48:23.535Z,12.78
2023-05-02T15:50:50.705Z,12.85
2023-05-02T15:53:17.525Z,12.75
2023-05-02T15:55:45.823Z,12.66
2023-05-02T15:58:13.332Z,12.66
2023-05-02T16:00:40.203Z,12.67
2023-05-02T16:03:06.762Z,12.64
2023-05-02T16:05:34.006Z,12.59
2023-05-02T16:08:00.759Z,12.63
2023-05-02T16:10:28.518Z,12.61
2023-05-02T16:12:55.133Z,12.71
2023-05-02T16:15:22.588Z,12.72
2023-05-02T16:17:49.851Z,12.58
2023-05-02T16:20:17.297Z,12.46
2023-05-02T16:22:47.693Z,12.38
2023-05-02T16:25:16.109Z,12.39
2023-05-02T16:27:43.053Z,12.39
2023-05-02T16:30:10.092Z,12.49
2023-05-02T16:32:40.398Z,12.45
2023-05-02T16:35:10.815Z,12.43
2023-05-02T16:37:37.417Z,12.38
2023-05-02T16:40:05.968Z,12.38
2023-05-02T16:42:33.050Z,12.35
2023-05-02T16:44:59.553Z,12.35
2023-05-02T16:47:26.790Z,12.33
2023-05-02T16:49:57.897Z,12.33
2023-05-02T16:52:25.006Z,12.29
2023-05-02T16:54:51.628Z,12.24
2023-05-02T16:57:21.539Z,12.14
2023-05-02T16:59:49.659Z,12.14
2023-05-02T17:02:16.785Z,12.03
2023-05-02T17:04:43.395Z,12.03
2023-05-02T17:07:12.143Z,12.01
2023-05-02T17:09:39.498Z,11.98
2023-05-02T17:12:06.637Z,11.96
2023-05-02T17:14:33.801Z,11.92
2023-05-02T17:17:01.337Z,11.90
2023-05-02T17:19:27.982Z,11.87
2023-05-02T17:21:56.566Z,11.86
2023-05-02T17:24:23.312Z,11.88
2023-05-02T17:26:51.049Z,11.93
2023-05-02T17:29:17.645Z,11.94
2023-05-02T17:31:44.290Z,11.91
2023-05-02T17:34:10.774Z,11.93
2023-05-02T17:36:39.949Z,11.78
2023-05-02T17:39:06.444Z,11.62
2023-05-02T17:41:35.829Z,11.59
2023-05-02T17:44:02.322Z,11.58
2023-05-02T17:46:28.827Z,11.59
2023-05-02T17:48:55.333Z,11.55
2023-05-02T17:51:21.841Z,11.46
2023-05-02T17:53:51.428Z,11.41
2023-05-02T17:56:18.762Z,11.36
2023-05-02T17:58:45.632Z,11.24
2023-05-02T18:01:13.806Z,11.16
2023-05-02T18:03:40.617Z,11.14
2023-05-02T18:06:07.422Z,11.10
2023-05-02T18:08:34.019Z,11.09
2023-05-02T18:11:00.808Z,11.02
2023-05-02T18:13:27.389Z,10.99
2023-05-02T18:15:57.588Z,10.97
2023-05-02T18:18:24.195Z,10.95
2023-05-02T18:20:50.874Z,10.96
2023-05-02T18:23:17.422Z,10.96
2023-05-02T18:25:44.216Z,10.80
2023-05-02T18:28:11.681Z,10.67
2023-05-02T18:30:38.393Z,10.53
2023-05-02T18:33:06.475Z,10.49
2023-05-02T18:35:33.249Z,10.39
2023-05-02T18:37:59.862Z,10.34
2023-05-02T18:40:26.540Z,10.29
2023-05-02T18:42:53.144Z,10.17
2023-05-02T18:45:19.682Z,10.11
2023-05-02T18:47:46.219Z,10.02
2023-05-02T18:50:12.668Z,9.95
2023-05-02T18:52:39.124Z,9.90
2023-05-02T18:55:06.127Z,9.82
2023-05-02T18:57:33.821Z,9.78
2023-05-02T19:00:00.859Z,9.71
2023-05-02T19:02:27.753Z,9.65
2023-05-02T19:04:54.637Z,9.62
2023-05-02T19:07:21.072Z,9.60
2023-05-02T19:09:47.500Z,9.54
2023-05-02T19:12:13.975Z,9.47
2023-05-02T19:14:40.833Z,9.44
2023-05-02T19:17:07.376Z,9.40
2023-05-02T19:19:33.809Z,9.30
2023-05-02T19:22:00.342Z,9.24
2023-05-02T19:24:26.883Z,9.18
2023-05-02T19:26:53.670Z,9.13
2023-05-02T19:29:20.575Z,9.11
2023-05-02T19:31:47.064Z,9.06
2023-05-02T19:34:13.585Z,9.01
2023-05-02T19:36:40.005Z,8.96
2023-05-02T19:39:06.640Z,8.92
2023-05-02T19:41:33.271Z,8.85
2023-05-02T19:44:00.414Z,8.82
2023-05-02T19:46:27.181Z,8.78
2023-05-02T19:48:53.728Z,8.73
2023-05-02T19:51:25.207Z,8.69
2023-05-02T19:53:52.941Z,8.61
2023-05-02T19:56:21.430Z,8.59
2023-05-02T19:58:47.899Z,8.55
2023-05-02T20:01:14.830Z,8.52
2023-05-02T20:03:41.598Z,8.48
2023-05-02T20:06:08.326Z,8.43
2023-05-02T20:08:34.983Z,8.39
2023-05-02T20:11:01.569Z,8.34
2023-05-02T20:13:28.083Z,8.30
2023-05-02T20:15:54.552Z,8.25
2023-05-02T20:18:21.161Z,8.22
2023-05-02T20:20:47.922Z,8.20
2023-05-02T20:23:14.876Z,8.14
2023-05-02T20:25:42.901Z,8.09
2023-05-02T20:28:09.688Z,8.07
2023-05-02T20:30:36.247Z,8.03
2023-05-02T20:33:14.097Z,7.96
2023-05-02T20:35:42.583Z,7.91
2023-05-02T20:38:09.721Z,7.90
2023-05-02T20:40:40.708Z,7.87
2023-05-02T20:43:07.653Z,7.83
2023-05-02T20:45:34.255Z,7.78
2023-05-02T20:48:00.881Z,7.75
2023-05-02T20:50:28.251Z,7.71
2023-05-02T20:52:55.397Z,7.69
2023-05-02T20:55:22.894Z,7.66
2023-05-02T20:57:52.925Z,7.63
2023-05-02T21:00:21.818Z,7.59
2023-05-02T21:02:48.384Z,7.55
2023-05-02T21:05:15.019Z,7.49
2023-05-02T21:07:41.576Z,7.44
2023-05-02T21:10:09.231Z,7.41
2023-05-02T21:12:35.693Z,7.35
2023-05-02T21:15:02.310Z,7.32
2023-05-02T21:17:28.872Z,7.27
2023-05-02T21:19:55.983Z,7.22
2023-05-02T21:22:22.526Z,7.18
2023-05-02T21:24:50.127Z,7.16
2023-05-02T21:27:16.760Z,7.11
2023-05-02T21:29:43.317Z,7.08
2023-05-02T21:32:10.026Z,7.06
2023-05-02T21:34:36.787Z,7.02
2023-05-02T21:37:03.175Z,7.00
2023-05-02T21:39:29.570Z,6.96
2023-05-02T21:41:56.323Z,6.93
2023-05-02T21:44:22.739Z,6.91
2023-05-02T21:46:50.400Z,6.90
2023-05-02T21:49:16.938Z,6.87
2023-05-02T21:51:43.396Z,6.85
2023-05-02T21:54:09.878Z,6.81
2023-05-02T21:56:36.368Z,6.79
2023-05-02T21:59:03.353Z,6.78
2023-05-02T22:01:30.002Z,6.75
2023-05-02T22:03:57.912Z,6.72
2023-05-02T22:06:24.788Z,6.67
2023-05-02T22:08:51.452Z,6.62
2023-05-02T22:11:18.033Z,6.60
2023-05-02T22:13:44.625Z,6.57
2023-05-02T22:16:11.352Z,6.54
2023-05-02T22:18:37.847Z,6.50
2023-05-02T22:21:04.363Z,6.46
2023-05-02T22:23:30.933Z,6.43
2023-05-02T22:25:57.647Z,6.39
2023-05-02T22:28:24.215Z,6.38
2023-05-02T22:30:50.894Z,6.33
2023-05-02T22:33:17.433Z,6.31
2023-05-02T22:35:43.912Z,6.28
2023-05-02T22:38:14.974Z,6.27
2023-05-02T22:40:41.502Z,6.23
2023-05-02T22:43:08.291Z,6.21
2023-05-02T22:45:36.466Z,6.18
2023-05-02T22:48:03.207Z,6.14
2023-05-02T22:50:31.882Z,6.13
2023-05-02T22:52:59.597Z,6.09
2023-05-02T22:55:26.189Z,6.05
2023-05-02T22:57:52.759Z,6.01
2023-05-02T23:00:19.806Z,5.98
2023-05-02T23:02:46.524Z,5.94
2023-05-02T23:05:14.192Z,5.91
2023-05-02T23:07:40.677Z,5.86
2023-05-02T23:10:07.931Z,5.81
2023-05-02T23:12:34.550Z,5.75
2023-05-02T23:15:01.242Z,5.72
2023-05-02T23:17:27.748Z,5.68
2023-05-02T23:19:54.219Z,5.63
2023-05-02T23:22:20.761Z,5.58
2023-05-02T23:24:48.072Z,5.55
2023-05-02T23:27:15.197Z,5.51
2023-05-02T23:29:41.770Z,5.48
2023-05-02T23:32:08.448Z,5.44
2023-05-02T23:34:38.013Z,5.41
2023-05-02T23:37:06.194Z,5.38
2023-05-02T23:39:33.306Z,5.34
2023-05-02T23:42:00.664Z,5.28
2023-05-02T23:44:27.248Z,5.24
2023-05-02T23:46:53.836Z,5.22
2023-05-02T23:49:21.306Z,5.20
2023-05-02T23:51:47.851Z,5.15
2023-05-02T23:54:14.396Z,5.11
2023-05-02T23:56:40.882Z,5.08
2023-05-02T23:59:07.418Z,5.06
